createdAt,value
2018-03-31T00:02:57.048Z,8.00
2018-03-31T00:06:59.126Z,8.20
2018-03-31T00:11:01.160Z,8.20
2018-03-31T00:15:03.975Z,8.40
2018-03-31T00:19:08.717Z,8.30
2018-03-31T00:23:10.776Z,8.30
2018-03-31T00:27:12.808Z,8.20
2018-03-31T00:31:15.191Z,8.10
2018-03-31T00:35:17.232Z,8.00
2018-03-31T00:39:19.336Z,7.90
2018-03-31T00:43:21.420Z,7.90
2018-03-31T00:47:23.469Z,7.70
2018-03-31T00:51:28.544Z,7.40
2018-03-31T00:55:30.620Z,7.40
2018-03-31T00:59:32.663Z,7.20
2018-03-31T01:03:49.740Z,6.90
2018-03-31T01:07:51.760Z,6.80
2018-03-31T01:11:54.165Z,6.80
2018-03-31T01:15:56.187Z,6.70
2018-03-31T01:19:58.265Z,6.60
2018-03-31T01:24:00.298Z,6.70
2018-03-31T01:28:03.126Z,6.70
2018-03-31T01:32:05.146Z,6.60
2018-03-31T01:36:07.233Z,6.70
2018-03-31T01:40:09.253Z,6.60
2018-03-31T01:44:11.334Z,6.70
2018-03-31T01:48:13.379Z,6.60
2018-03-31T01:52:20.880Z,6.50
2018-03-31T01:56:22.940Z,6.40
2018-03-31T02:00:25.001Z,6.40
2018-03-31T02:04:27.030Z,6.30
2018-03-31T02:08:29.104Z,6.20
2018-03-31T02:12:31.169Z,6.20
2018-03-31T02:16:33.993Z,6.10
2018-03-31T02:20:42.699Z,6.10
2018-03-31T02:24:44.840Z,6.00
2018-03-31T02:28:46.868Z,5.90
2018-03-31T02:32:48.913Z,6.00
2018-03-31T02:36:54.370Z,6.10
2018-03-31T02:40:56.496Z,6.20
2018-03-31T02:44:58.575Z,6.00
2018-03-31T02:49:00.627Z,5.90
2018-03-31T02:53:02.672Z,5.80
2018-03-31T02:57:05.989Z,5.70
2018-03-31T03:01:08.788Z,5.50
2018-03-31T03:05:10.848Z,5.40
2018-03-31T03:09:12.880Z,5.50
2018-03-31T03:13:14.936Z,5.60
2018-03-31T03:17:17.020Z,5.50
2018-03-31T03:21:19.080Z,5.50
2018-03-31T03:25:21.113Z,5.40
2018-03-31T03:29:23.184Z,5.50
2018-03-31T03:33:25.215Z,5.50
2018-03-31T03:37:27.281Z,5.30
2018-03-31T03:41:29.334Z,5.20
2018-03-31T03:45:31.529Z,5.10
2018-03-31T03:49:33.556Z,5.20
2018-03-31T03:53:35.620Z,5.20
2018-03-31T03:57:43.435Z,4.90
2018-03-31T04:01:45.625Z,4.80
2018-03-31T04:05:47.664Z,4.90
2018-03-31T04:09:50.779Z,4.70
2018-03-31T04:13:54.579Z,4.70
2018-03-31T04:17:56.657Z,4.60
2018-03-31T04:21:58.731Z,4.80
2018-03-31T04:26:00.873Z,4.80
2018-03-31T04:30:02.904Z,4.70
2018-03-31T04:34:05.735Z,4.90
2018-03-31T04:38:08.521Z,4.80
2018-03-31T04:42:10.575Z,4.70
2018-03-31T04:46:12.672Z,4.80
2018-03-31T04:50:14.728Z,4.90
2018-03-31T04:54:16.755Z,5.00
2018-03-31T04:58:18.813Z,5.00
2018-03-31T05:02:21.620Z,4.90
2018-03-31T05:06:24.451Z,4.90
2018-03-31T05:10:26.484Z,4.90
2018-03-31T05:14:28.532Z,4.80
2018-03-31T05:18:30.563Z,4.50
2018-03-31T05:22:32.924Z,4.50
2018-03-31T05:26:39.380Z,4.50
2018-03-31T05:30:41.452Z,4.60
2018-03-31T05:34:43.486Z,4.80
2018-03-31T05:38:45.564Z,4.80
2018-03-31T05:42:49.508Z,4.80
2018-03-31T05:46:51.624Z,4.70
2018-03-31T05:50:53.650Z,4.90
2018-03-31T05:54:55.711Z,5.20
2018-03-31T05:58:57.728Z,5.30
2018-03-31T06:03:00.945Z,5.40
2018-03-31T06:07:03.736Z,5.40
2018-03-31T06:11:05.897Z,5.40
2018-03-31T06:15:07.923Z,5.50
2018-03-31T06:19:11.058Z,5.50
2018-03-31T06:23:13.853Z,5.40
2018-03-31T06:27:16.009Z,5.30
2018-03-31T06:31:18.032Z,5.70
2018-03-31T06:35:21.505Z,5.80
2018-03-31T06:39:24.302Z,6.40
2018-03-31T06:43:26.448Z,6.40
2018-03-31T06:47:28.501Z,6.80
2018-03-31T06:51:30.645Z,7.20
2018-03-31T06:55:33.639Z,7.30
2018-03-31T06:59:36.941Z,7.40
2018-03-31T07:03:39.161Z,7.60
2018-03-31T07:07:41.249Z,7.80
2018-03-31T07:11:43.282Z,7.60
2018-03-31T07:15:45.340Z,7.60
2018-03-31T07:19:48.307Z,8.10
2018-03-31T07:23:50.393Z,8.30
2018-03-31T07:27:52.440Z,8.10
2018-03-31T07:31:56.667Z,8.80
2018-03-31T07:35:58.691Z,8.70
2018-03-31T07:40:01.057Z,9.30
2018-03-31T07:44:03.096Z,9.70
2018-03-31T07:48:05.164Z,9.90
2018-03-31T07:52:07.988Z,10.20
2018-03-31T07:56:10.086Z,10.20
2018-03-31T08:00:12.159Z,10.30
2018-03-31T08:04:14.980Z,11.70
2018-03-31T08:08:17.033Z,11.60
2018-03-31T08:12:19.175Z,12.60
2018-03-31T08:16:21.964Z,15.60
2018-03-31T08:20:24.019Z,15.50
2018-03-31T08:24:26.071Z,16.10
2018-03-31T08:28:28.918Z,15.80
2018-03-31T08:32:35.619Z,15.70
2018-03-31T08:36:38.641Z,16.40
2018-03-31T08:40:40.695Z,16.70
2018-03-31T08:44:42.769Z,17.00
2018-03-31T08:48:48.380Z,17.40
2018-03-31T08:52:50.457Z,18.00
2018-03-31T08:56:52.496Z,18.90
2018-03-31T09:00:54.554Z,19.40
2018-03-31T09:04:56.651Z,19.90
2018-03-31T09:08:59.148Z,20.70
2018-03-31T09:13:01.193Z,21.80
2018-03-31T09:17:04.326Z,22.10
2018-03-31T09:21:07.133Z,22.40
2018-03-31T09:25:09.200Z,22.30
2018-03-31T09:29:11.625Z,22.50
2018-03-31T09:33:13.697Z,23.10
2018-03-31T09:37:15.741Z,23.90
2018-03-31T09:41:26.040Z,23.80
2018-03-31T09:45:37.354Z,23.20
2018-03-31T09:49:39.493Z,23.10
2018-03-31T09:53:48.080Z,22.60
2018-03-31T09:57:50.981Z,21.90
2018-03-31T10:01:53.025Z,21.80
2018-03-31T10:05:56.107Z,22.30
2018-03-31T10:09:59.248Z,21.80
2018-03-31T10:14:04.493Z,21.70
2018-03-31T10:18:06.529Z,21.40
2018-03-31T10:22:10.550Z,21.50
2018-03-31T10:26:12.600Z,22.00
2018-03-31T10:30:14.781Z,22.20
2018-03-31T10:34:20.792Z,22.60
2018-03-31T10:38:23.829Z,22.40
2018-03-31T10:42:31.815Z,22.30
2018-03-31T10:46:34.880Z,22.20
2018-03-31T10:50:37.680Z,22.00
2018-03-31T10:54:40.024Z,21.90
2018-03-31T10:58:42.108Z,21.60
2018-03-31T11:02:44.250Z,21.80
2018-03-31T11:06:47.065Z,21.90
2018-03-31T11:10:49.957Z,21.40
2018-03-31T11:14:51.994Z,21.30
2018-03-31T11:18:54.052Z,21.40
2018-03-31T11:22:56.083Z,20.90
2018-03-31T11:26:58.176Z,19.90
2018-03-31T11:31:00.227Z,18.60
2018-03-31T11:35:03.206Z,17.60
2018-03-31T11:39:05.997Z,17.70
2018-03-31T11:43:08.065Z,17.70
2018-03-31T11:47:10.113Z,17.40
2018-03-31T11:51:13.040Z,17.00
2018-03-31T11:55:16.025Z,17.00
2018-03-31T11:59:18.089Z,17.50
2018-03-31T12:03:20.152Z,17.70
2018-03-31T12:07:27.154Z,17.20
2018-03-31T12:11:30.949Z,16.90
2018-03-31T12:15:33.132Z,16.80
2018-03-31T12:19:35.177Z,16.70
2018-03-31T12:23:37.304Z,17.10
2018-03-31T12:27:45.325Z,17.30
2018-03-31T12:31:47.419Z,17.30
2018-03-31T12:35:50.235Z,17.60
2018-03-31T12:39:54.072Z,17.30
2018-03-31T12:43:58.072Z,17.30
2018-03-31T12:48:00.132Z,17.10
2018-03-31T12:52:02.366Z,16.80
2018-03-31T12:56:04.440Z,16.50
2018-03-31T13:00:06.469Z,16.30
2018-03-31T13:04:09.299Z,15.90
2018-03-31T13:08:12.150Z,15.70
2018-03-31T13:12:14.373Z,15.60
2018-03-31T13:16:16.923Z,15.50
2018-03-31T13:20:20.155Z,15.60
2018-03-31T13:24:24.905Z,15.60
2018-03-31T13:28:27.996Z,15.70
2018-03-31T13:32:32.108Z,15.70
2018-03-31T13:36:35.208Z,15.70
2018-03-31T13:40:40.890Z,15.70
2018-03-31T13:44:43.035Z,15.60
2018-03-31T13:48:45.111Z,15.00
2018-03-31T13:52:48.100Z,14.80
2018-03-31T13:56:50.135Z,14.80
2018-03-31T14:00:53.305Z,14.80
2018-03-31T14:04:55.345Z,14.70
2018-03-31T14:08:57.411Z,14.40
2018-03-31T14:12:59.439Z,14.20
2018-03-31T14:17:01.579Z,14.10
2018-03-31T14:21:03.612Z,14.20
2018-03-31T14:25:05.764Z,14.20
2018-03-31T14:29:08.564Z,14.30
2018-03-31T14:33:10.639Z,14.20
2018-03-31T14:37:13.691Z,14.40
2018-03-31T14:41:16.606Z,14.30
2018-03-31T14:45:19.401Z,14.30
2018-03-31T14:49:21.456Z,14.30
2018-03-31T14:53:23.516Z,14.40
2018-03-31T14:57:27.661Z,14.20
2018-03-31T15:01:29.705Z,14.00
2018-03-31T15:05:31.761Z,14.10
2018-03-31T15:09:34.734Z,14.30
2018-03-31T15:13:36.812Z,14.50
2018-03-31T15:17:38.845Z,14.60
2018-03-31T15:21:46.668Z,14.20
2018-03-31T15:25:49.458Z,14.00
2018-03-31T15:29:51.516Z,13.90
2018-03-31T15:33:53.551Z,13.80
2018-03-31T15:37:57.523Z,13.70
2018-03-31T15:42:00.518Z,13.60
2018-03-31T15:46:02.607Z,13.70
2018-03-31T15:50:04.646Z,13.80
2018-03-31T15:54:06.904Z,13.90
2018-03-31T15:58:08.942Z,14.00
2018-03-31T16:02:13.028Z,14.10
2018-03-31T16:06:15.065Z,14.10
2018-03-31T16:10:17.132Z,14.20
2018-03-31T16:14:19.948Z,14.30
2018-03-31T16:18:22.002Z,14.20
2018-03-31T16:22:24.035Z,14.20
2018-03-31T16:26:26.860Z,14.20
2018-03-31T16:30:29.656Z,14.10
2018-03-31T16:34:31.768Z,14.00
2018-03-31T16:38:36.541Z,13.80
2018-03-31T16:42:39.364Z,13.70
2018-03-31T16:46:42.169Z,13.50
2018-03-31T16:50:44.334Z,13.50
2018-03-31T16:54:46.360Z,13.30
2018-03-31T16:58:49.212Z,13.00
2018-03-31T17:02:51.236Z,13.00
2018-03-31T17:06:53.308Z,12.90
2018-03-31T17:10:55.337Z,12.90
2018-03-31T17:14:57.407Z,12.80
2018-03-31T17:18:59.428Z,12.70
2018-03-31T17:23:01.489Z,12.60
2018-03-31T17:27:03.550Z,12.50
2018-03-31T17:31:06.369Z,12.40
2018-03-31T17:35:08.449Z,12.30
2018-03-31T17:39:11.305Z,12.30
2018-03-31T17:43:13.346Z,12.30
2018-03-31T17:47:16.269Z,12.30
2018-03-31T17:51:19.104Z,12.30
2018-03-31T17:55:21.229Z,12.20
2018-03-31T17:59:23.266Z,12.20
2018-03-31T18:03:25.655Z,12.20
2018-03-31T18:07:27.689Z,12.10
2018-03-31T18:11:30.692Z,12.10
2018-03-31T18:15:33.498Z,12.00
2018-03-31T18:19:37.445Z,11.90
2018-03-31T18:23:40.228Z,11.80
2018-03-31T18:27:42.282Z,11.80
2018-03-31T18:31:44.316Z,11.80
2018-03-31T18:35:48.534Z,11.80
2018-03-31T18:39:50.590Z,11.70
2018-03-31T18:43:52.650Z,11.70
2018-03-31T18:47:54.681Z,11.70
2018-03-31T18:51:56.738Z,11.60
2018-03-31T18:55:58.832Z,11.50
2018-03-31T19:00:00.899Z,11.50
2018-03-31T19:04:02.938Z,11.40
2018-03-31T19:08:05.001Z,11.40
2018-03-31T19:12:07.032Z,11.30
2018-03-31T19:16:09.180Z,11.10
2018-03-31T19:20:11.229Z,11.00
2018-03-31T19:24:14.074Z,10.80
2018-03-31T19:28:16.274Z,10.70
2018-03-31T19:32:18.449Z,10.60
2018-03-31T19:36:20.503Z,10.70
2018-03-31T19:40:22.560Z,10.60
2018-03-31T19:44:24.604Z,10.60
2018-03-31T19:48:29.765Z,10.50
2018-03-31T19:52:32.783Z,10.60
2018-03-31T19:56:36.413Z,10.60
2018-03-31T20:00:38.456Z,10.40
2018-03-31T20:04:46.645Z,10.40
2018-03-31T20:08:48.784Z,10.30
2018-03-31T20:12:51.210Z,10.40
2018-03-31T20:16:54.208Z,10.40
2018-03-31T20:20:57.064Z,10.40
2018-03-31T20:25:01.198Z,10.30
2018-03-31T20:29:05.231Z,10.40
2018-03-31T20:33:09.245Z,10.30
2018-03-31T20:37:12.310Z,10.30
2018-03-31T20:41:16.348Z,10.30
2018-03-31T20:45:23.252Z,10.20
2018-03-31T20:49:25.315Z,10.10
2018-03-31T20:53:28.196Z,10.30
2018-03-31T20:57:30.463Z,10.20
2018-03-31T21:01:32.519Z,10.10
2018-03-31T21:05:35.309Z,10.10
2018-03-31T21:09:37.372Z,10.10
2018-03-31T21:13:39.400Z,10.20
2018-03-31T21:17:48.609Z,10.10
2018-03-31T21:21:50.690Z,10.20
2018-03-31T21:25:52.894Z,10.20
2018-03-31T21:29:54.891Z,10.10
2018-03-31T21:33:57.059Z,9.90
2018-03-31T21:38:03.314Z,10.00
2018-03-31T21:42:05.369Z,9.90
2018-03-31T21:46:08.160Z,9.90
2018-03-31T21:50:10.204Z,9.90
2018-03-31T21:54:12.227Z,10.00
2018-03-31T21:58:14.275Z,10.00
2018-03-31T22:02:16.304Z,10.00
2018-03-31T22:06:18.364Z,10.00
2018-03-31T22:10:21.328Z,10.00
2018-03-31T22:14:29.006Z,10.00
2018-03-31T22:18:31.796Z,9.90
2018-03-31T22:22:33.868Z,9.90
2018-03-31T22:26:35.976Z,9.90
2018-03-31T22:30:38.050Z,9.80
2018-03-31T22:34:40.092Z,9.90
2018-03-31T22:38:42.167Z,9.80
2018-03-31T22:42:44.201Z,9.80
2018-03-31T22:46:47.016Z,9.60
2018-03-31T22:50:49.036Z,9.50
2018-03-31T22:54:53.125Z,9.50
2018-03-31T22:58:55.917Z,9.40
2018-03-31T23:02:57.965Z,9.30
2018-03-31T23:07:00.001Z,9.40
2018-03-31T23:11:02.847Z,9.30
2018-03-31T23:15:06.845Z,9.20
2018-03-31T23:19:08.936Z,9.20
2018-03-31T23:23:11.032Z,9.10
2018-03-31T23:27:13.100Z,9.10
2018-03-31T23:31:15.117Z,9.10
2018-03-31T23:35:17.652Z,9.10
2018-03-31T23:39:19.749Z,9.00
2018-03-31T23:43:24.508Z,9.00
2018-03-31T23:47:27.296Z,9.00
2018-03-31T23:51:29.363Z,8.90
2018-03-31T23:55:31.383Z,8.90
2018-03-31T23:59:33.432Z,8.70
